Time;durP1;ratioP1;P1;durP2;ratioP2;P2;SDS_P1;SDS_P2;PMS_P1;PMS_P2;Temp;Humidity;BMP_temperature;BMP_pressure;BME280_temperature;BME280_humidity;BME280_pressure;Samples;Min_cycle;Max_cycle;Signal;HPM_P1;HPM_P2
2023/08/18 00:01:41;;;;;;;0.98;0.20;;;21.90;61.60;;;;;;4941482;28;20354;-70
2023/08/18 00:04:09;;;;;;;0.20;0.10;;;21.30;62.20;;;;;;4976873;28;20141;-69
2023/08/18 00:06:40;;;;;;;0.20;0.10;;;21.80;59.80;;;;;;4972638;28;20700;-70
2023/08/18 00:09:08;;;;;;;0.40;0.20;;;21.40;61.70;;;;;;4969059;28;20078;-68
2023/08/18 00:11:39;;;;;;;0.20;0.10;;;21.50;62.00;;;;;;4966624;28;20281;-71
2023/08/18 00:14:06;;;;;;;0.10;0.10;;;21.90;61.20;;;;;;5017620;28;20079;-69
2023/08/18 00:16:34;;;;;;;0.70;0.10;;;22.10;58.70;;;;;;5012403;28;20013;-70
2023/08/18 00:19:06;;;;;;;0.10;0.00;;;21.60;57.80;;;;;;4962773;28;20321;-71
2023/08/18 00:21:34;;;;;;;1.65;0.20;;;21.40;59.90;;;;;;5004968;28;20096;-70
2023/08/18 00:24:04;;;;;;;0.43;0.22;;;21.50;59.30;;;;;;4965878;28;20259;-71
2023/08/18 00:26:34;;;;;;;1.33;0.25;;;22.00;60.10;;;;;;4988679;28;20437;-72
2023/08/18 00:29:01;;;;;;;0.60;0.20;;;21.50;57.70;;;;;;5022830;28;20021;-70
2023/08/18 00:31:31;;;;;;;0.90;0.10;;;21.20;58.00;;;;;;4990904;28;20412;-70
2023/08/18 00:33:59;;;;;;;0.57;0.13;;;21.60;57.20;;;;;;5003156;28;20029;-69
2023/08/18 00:36:27;;;;;;;0.00;0.00;;;21.60;58.20;;;;;;5009029;28;20025;-69
2023/08/18 00:38:55;;;;;;;0.32;0.03;;;22.00;57.60;;;;;;4979440;28;20359;-68
2023/08/18 00:41:25;;;;;;;0.00;0.00;;;22.80;56.20;;;;;;5009598;28;20017;-70
2023/08/18 00:43:55;;;;;;;0.03;0.00;;;23.00;56.60;;;;;;4958332;28;20025;-70
2023/08/18 00:46:24;;;;;;;0.20;0.10;;;23.00;55.90;;;;;;4954427;28;20632;-69
2023/08/18 00:48:52;;;;;;;0.10;0.00;;;22.70;56.80;;;;;;5026751;28;20036;-69
2023/08/18 00:51:20;;;;;;;0.30;0.10;;;23.30;55.70;;;;;;5030112;28;20029;-69
2023/08/18 00:53:49;;;;;;;0.80;0.00;;;23.30;53.40;;;;;;5017093;28;20036;-69
2023/08/18 00:56:17;;;;;;;0.25;0.10;;;23.20;53.30;;;;;;4983610;28;20061;-70
2023/08/18 00:58:44;;;;;;;0.10;0.00;;;23.60;53.60;;;;;;4996761;28;20021;-69
2023/08/18 01:01:14;;;;;;;0.00;0.00;;;23.70;54.10;;;;;;5008428;28;20025;-70
2023/08/18 01:03:42;;;;;;;0.00;0.00;;;23.70;54.30;;;;;;5014210;28;20026;-69
2023/08/18 01:06:10;;;;;;;0.32;0.00;;;23.60;52.60;;;;;;5008099;28;20025;-69
2023/08/18 01:08:37;;;;;;;0.00;0.00;;;23.30;53.30;;;;;;4996317;28;20029;-69
2023/08/18 01:11:48;;;;;;;0.10;0.08;;;23.60;53.70;;;;;;4998258;28;20021;-69
2023/08/18 01:14:31;;;;;;;0.55;0.10;;;23.70;53.30;;;;;;4985590;28;20403;-70
2023/08/18 01:17:08;;;;;;;0.05;0.05;;;24.10;52.80;;;;;;5024520;28;20076;-70
2023/08/18 01:19:36;;;;;;;0.22;0.15;;;24.00;52.00;;;;;;4971871;28;20017;-70
2023/08/18 01:22:11;;;;;;;0.45;0.00;;;23.20;52.60;;;;;;5010048;28;20422;-68
2023/08/18 01:24:42;;;;;;;0.08;0.00;;;22.70;53.60;;;;;;4998626;28;20574;-69
2023/08/18 01:27:09;;;;;;;0.20;0.00;;;22.20;54.00;;;;;;5001912;28;20319;-69
2023/08/18 01:29:40;;;;;;;0.20;0.00;;;21.90;54.90;;;;;;5003474;28;20898;-70
2023/08/18 01:32:12;;;;;;;0.55;0.28;;;21.80;55.90;;;;;;5004339;28;20017;-70
2023/08/18 01:34:44;;;;;;;0.10;0.00;;;21.60;56.90;;;;;;5009131;28;20903;-70
2023/08/18 01:37:14;;;;;;;0.20;0.20;;;21.60;56.80;;;;;;4975529;28;20673;-69
2023/08/18 01:39:42;;;;;;;0.10;0.05;;;21.30;57.00;;;;;;5031005;28;20032;-69
2023/08/18 01:42:10;;;;;;;0.00;0.00;;;21.60;56.60;;;;;;5013897;28;20029;-69
2023/08/18 01:44:37;;;;;;;0.03;0.03;;;21.40;56.00;;;;;;5002218;28;20384;-68
2023/08/18 01:47:05;;;;;;;0.00;0.00;;;21.60;56.80;;;;;;5017122;28;20032;-68
2023/08/18 01:49:33;;;;;;;0.10;0.10;;;21.00;55.90;;;;;;5033893;28;20025;-68
2023/08/18 01:52:01;;;;;;;0.63;0.20;;;21.90;56.80;;;;;;5052671;28;20354;-68
2023/08/18 01:54:28;;;;;;;0.70;0.10;;;23.00;55.20;;;;;;5066227;28;20075;-68
2023/08/18 01:56:57;;;;;;;1.95;0.03;;;23.30;54.10;;;;;;5032169;28;20022;-69
2023/08/18 01:59:25;;;;;;;0.10;0.10;;;22.60;52.80;;;;;;5033471;28;20030;-69
2023/08/18 02:01:52;;;;;;;0.32;0.10;;;22.20;52.80;;;;;;5035210;28;20021;-69
2023/08/18 02:04:19;;;;;;;1.23;0.22;;;22.30;51.50;;;;;;5035153;28;20014;-70
2023/08/18 02:06:47;;;;;;;0.10;0.10;;;22.00;52.00;;;;;;5040349;28;20032;-69
2023/08/18 02:09:14;;;;;;;2.65;0.10;;;21.60;51.80;;;;;;5054664;28;20052;-69
2023/08/18 02:11:46;;;;;;;0.17;0.00;;;21.60;52.00;;;;;;5041486;28;20038;-69
2023/08/18 02:14:13;;;;;;;0.38;0.20;;;21.90;51.40;;;;;;5034389;28;20032;-70
2023/08/18 02:16:42;;;;;;;1.58;0.10;;;21.90;51.50;;;;;;5032349;28;20028;-68
2023/08/18 02:19:09;;;;;;;1.85;0.47;;;20.50;54.90;;;;;;5041130;28;20048;-68
2023/08/18 02:21:37;;;;;;;0.20;0.20;;;20.90;55.40;;;;;;5054416;28;20374;-69
2023/08/18 02:24:05;;;;;;;0.30;0.10;;;21.40;54.70;;;;;;5054610;28;20032;-69
2023/08/18 02:26:34;;;;;;;1.85;0.40;;;22.00;53.80;;;;;;5039811;28;20049;-69
2023/08/18 02:29:01;;;;;;;0.95;0.30;;;21.50;52.30;;;;;;5052269;28;20051;-68
2023/08/18 02:31:31;;;;;;;0.50;0.20;;;20.80;53.60;;;;;;5044898;28;20017;-68
2023/08/18 02:33:59;;;;;;;1.80;0.30;;;20.80;54.10;;;;;;5050254;28;20024;-68
2023/08/18 02:36:26;;;;;;;0.35;0.20;;;20.30;54.90;;;;;;5043869;28;20104;-68
2023/08/18 02:38:53;;;;;;;0.15;0.15;;;20.10;54.80;;;;;;5026812;28;20096;-68
2023/08/18 02:41:23;;;;;;;0.75;0.22;;;19.60;56.20;;;;;;5034021;28;20474;-68
2023/08/18 02:43:50;;;;;;;0.00;0.00;;;19.40;56.60;;;;;;5031574;28;20025;-68
2023/08/18 02:46:18;;;;;;;1.25;0.30;;;19.60;56.20;;;;;;5038536;28;20484;-68
2023/08/18 02:48:45;;;;;;;0.10;0.10;;;19.60;56.40;;;;;;5031892;28;20474;-68
2023/08/18 02:51:13;;;;;;;3.90;0.22;;;20.00;57.10;;;;;;5052526;28;20033;-70
2023/08/18 02:53:42;;;;;;;0.10;0.10;;;20.40;55.30;;;;;;5052841;28;20052;-68
2023/08/18 02:56:09;;;;;;;0.22;0.20;;;20.70;55.20;;;;;;5047417;28;20040;-69
2023/08/18 02:58:37;;;;;;;0.10;0.10;;;20.90;54.70;;;;;;5053903;28;20028;-68
2023/08/18 03:01:06;;;;;;;1.40;0.15;;;21.20;54.80;;;;;;5054024;28;20036;-68
2023/08/18 03:03:37;;;;;;;2.72;0.20;;;20.70;54.50;;;;;;5052935;28;20122;-68
2023/08/18 03:06:08;;;;;;;0.20;0.05;;;20.50;55.70;;;;;;5048785;28;20104;-69
2023/08/18 03:08:38;;;;;;;0.20;0.20;;;20.60;55.50;;;;;;5033954;28;20022;-69
2023/08/18 03:11:07;;;;;;;0.30;0.10;;;20.90;54.60;;;;;;5044621;28;20020;-69
2023/08/18 03:13:35;;;;;;;0.43;0.38;;;20.70;55.60;;;;;;5031388;28;20025;-69
2023/08/18 03:16:04;;;;;;;1.77;1.00;;;20.70;41.60;;;;;;5029310;28;20032;-69
2023/08/18 03:18:32;;;;;;;1.05;0.20;;;20.90;41.60;;;;;;5046997;28;20020;-69
2023/08/18 03:21:01;;;;;;;1.35;0.20;;;21.10;40.90;;;;;;5052744;28;20072;-69
2023/08/18 03:23:29;;;;;;;1.90;0.20;;;21.00;39.60;;;;;;5053478;28;20017;-69
2023/08/18 03:26:04;;;;;;;1.73;0.20;;;20.90;40.50;;;;;;5051397;28;20120;-68
2023/08/18 03:28:36;;;;;;;0.10;0.10;;;21.00;40.60;;;;;;5041545;28;20021;-68
2023/08/18 03:31:05;;;;;;;0.80;0.30;;;21.20;40.10;;;;;;5051314;28;20025;-69
2023/08/18 03:33:33;;;;;;;1.05;0.20;;;20.90;38.90;;;;;;5053272;28;20036;-69
2023/08/18 03:36:00;;;;;;;0.68;0.30;;;20.60;37.50;;;;;;5053546;28;20049;-68
2023/08/18 03:38:30;;;;;;;2.10;0.32;;;19.90;38.80;;;;;;5050806;28;20041;-69
2023/08/18 03:41:06;;;;;;;1.10;0.20;;;20.00;40.20;;;;;;5052045;28;20021;-68
2023/08/18 03:43:37;;;;;;;0.93;0.20;;;19.80;40.30;;;;;;5040073;28;20117;-69
2023/08/18 03:46:25;;;;;;;2.38;0.50;;;19.60;39.70;;;;;;5037553;28;20025;-69
2023/08/18 03:48:52;;;;;;;0.38;0.17;;;19.80;41.00;;;;;;5035970;28;20016;-68
2023/08/18 03:51:20;;;;;;;2.35;0.20;;;20.10;40.20;;;;;;5040151;28;20025;-68
2023/08/18 03:53:47;;;;;;;1.33;0.38;;;20.00;39.80;;;;;;5038250;28;20331;-69
2023/08/18 03:56:17;;;;;;;0.85;0.30;;;20.00;40.50;;;;;;5044289;28;20338;-68
2023/08/18 03:58:47;;;;;;;3.88;0.43;;;20.20;40.00;;;;;;5030181;28;20091;-68
2023/08/18 04:01:14;;;;;;;1.70;0.40;;;20.40;39.70;;;;;;5041384;28;20013;-69
2023/08/18 04:03:45;;;;;;;2.38;0.40;;;20.50;39.50;;;;;;5044873;28;20466;-69
2023/08/18 04:06:12;;;;;;;1.55;0.30;;;20.40;37.80;;;;;;5034304;28;20486;-68
2023/08/18 04:08:44;;;;;;;2.17;0.50;;;20.30;40.10;;;;;;5046324;28;20377;-68
2023/08/18 04:11:12;;;;;;;1.85;0.35;;;20.20;39.30;;;;;;5042013;28;20454;-69
2023/08/18 04:13:40;;;;;;;1.90;0.50;;;20.10;39.10;;;;;;5040602;28;20083;-69
2023/08/18 04:16:07;;;;;;;1.98;0.40;;;20.10;39.60;;;;;;5032654;28;20100;-69
2023/08/18 04:18:35;;;;;;;0.55;0.22;;;20.10;40.10;;;;;;5039139;28;20100;-69
2023/08/18 04:21:02;;;;;;;1.52;0.20;;;20.20;40.70;;;;;;5030131;28;20071;-68
2023/08/18 04:23:30;;;;;;;0.90;0.20;;;20.20;39.60;;;;;;5028443;28;20052;-69
2023/08/18 04:25:58;;;;;;;2.15;0.43;;;20.00;39.30;;;;;;5036322;28;20106;-68
2023/08/18 04:28:25;;;;;;;0.65;0.28;;;19.60;39.50;;;;;;5033108;28;20481;-68
2023/08/18 04:30:52;;;;;;;1.30;0.30;;;19.50;39.90;;;;;;5041617;28;20112;-69
2023/08/18 04:33:20;;;;;;;1.67;0.40;;;19.60;41.00;;;;;;5032410;28;20018;-68
2023/08/18 04:35:50;;;;;;;1.88;0.60;;;19.70;40.30;;;;;;5025269;28;20045;-69
2023/08/18 04:38:18;;;;;;;4.15;0.60;;;19.50;39.60;;;;;;5032197;28;20043;-69
2023/08/18 04:40:45;;;;;;;2.55;0.20;;;19.30;39.90;;;;;;5029200;28;20022;-69
2023/08/18 04:43:12;;;;;;;0.60;0.30;;;19.10;39.60;;;;;;5045626;28;20112;-69
2023/08/18 04:45:40;;;;;;;0.90;0.20;;;18.80;41.10;;;;;;5040500;28;20048;-69
2023/08/18 04:48:07;;;;;;;1.20;0.20;;;18.80;41.90;;;;;;5031892;28;20021;-70
2023/08/18 04:50:35;;;;;;;0.82;0.20;;;18.90;41.50;;;;;;5033474;28;20112;-69
2023/08/18 04:53:02;;;;;;;0.40;0.17;;;19.00;40.30;;;;;;5030960;28;20439;-69
2023/08/18 04:55:30;;;;;;;1.73;0.35;;;18.80;41.20;;;;;;5030479;28;20037;-69
2023/08/18 04:57:57;;;;;;;0.52;0.20;;;18.70;41.50;;;;;;5028877;28;20013;-69
2023/08/18 05:00:25;;;;;;;2.47;0.40;;;18.60;41.70;;;;;;5047445;28;20062;-69
2023/08/18 05:02:52;;;;;;;1.02;0.20;;;18.50;41.30;;;;;;5050972;28;20028;-69
2023/08/18 05:05:20;;;;;;;2.13;0.50;;;18.30;42.10;;;;;;5039397;28;20037;-69
2023/08/18 05:07:47;;;;;;;0.70;0.20;;;18.40;43.10;;;;;;5051979;28;20017;-69
2023/08/18 05:10:15;;;;;;;0.50;0.15;;;18.50;42.40;;;;;;5031027;28;20071;-69
2023/08/18 05:12:42;;;;;;;0.25;0.17;;;18.40;42.60;;;;;;5031749;28;20083;-69
2023/08/18 05:15:10;;;;;;;0.55;0.20;;;18.20;43.70;;;;;;5028141;28;20041;-69
2023/08/18 05:17:37;;;;;;;1.30;0.30;;;18.20;43.20;;;;;;5045987;28;20480;-69
2023/08/18 05:20:05;;;;;;;1.40;0.20;;;18.10;43.30;;;;;;5050772;28;20017;-70
2023/08/18 05:22:32;;;;;;;1.00;0.40;;;18.10;43.20;;;;;;5051621;28;20067;-70
2023/08/18 05:25:00;;;;;;;0.90;0.20;;;17.80;44.40;;;;;;5031377;28;20099;-69
2023/08/18 05:27:27;;;;;;;2.30;0.30;;;17.90;44.00;;;;;;5032090;28;20049;-69
2023/08/18 05:29:56;;;;;;;2.45;0.32;;;17.70;44.60;;;;;;5031113;28;20021;-69
2023/08/18 05:32:24;;;;;;;1.42;0.43;;;17.70;45.30;;;;;;5031671;28;20168;-70
2023/08/18 05:34:55;;;;;;;0.73;0.20;;;17.80;44.90;;;;;;5033952;28;20128;-69
2023/08/18 05:37:23;;;;;;;2.30;0.30;;;17.70;44.80;;;;;;5050605;28;20025;-69
2023/08/18 05:39:50;;;;;;;0.85;0.20;;;17.50;44.30;;;;;;5051593;28;20028;-70
2023/08/18 05:42:18;;;;;;;0.63;0.30;;;17.60;45.00;;;;;;5037996;28;20134;-70
2023/08/18 05:44:45;;;;;;;0.90;0.15;;;17.60;45.00;;;;;;5050854;28;20033;-69
2023/08/18 05:47:12;;;;;;;0.40;0.13;;;17.70;44.70;;;;;;5049148;28;20029;-69
2023/08/18 05:49:40;;;;;;;0.70;0.20;;;17.90;44.40;;;;;;5051378;28;20017;-68
2023/08/18 05:52:07;;;;;;;0.65;0.20;;;18.10;44.50;;;;;;5038224;28;20049;-68
2023/08/18 05:54:34;;;;;;;0.50;0.05;;;18.00;44.30;;;;;;5052076;28;20036;-69
2023/08/18 05:57:02;;;;;;;0.85;0.20;;;18.00;44.70;;;;;;5054297;28;20420;-68
2023/08/18 05:59:32;;;;;;;0.82;0.35;;;17.90;44.60;;;;;;5034555;28;20029;-68
2023/08/18 06:01:59;;;;;;;1.05;0.40;;;17.80;44.60;;;;;;5040467;28;20026;-70
2023/08/18 06:04:27;;;;;;;0.47;0.30;;;17.50;45.50;;;;;;5039321;28;20958;-70
2023/08/18 06:06:54;;;;;;;1.88;0.10;;;17.10;46.10;;;;;;5051929;28;20033;-69
2023/08/18 06:09:21;;;;;;;0.10;0.10;;;16.90;46.30;;;;;;5053672;28;20063;-69
2023/08/18 06:11:49;;;;;;;0.40;0.20;;;16.70;46.50;;;;;;5049209;28;20021;-70
2023/08/18 06:14:16;;;;;;;0.52;0.20;;;16.40;47.30;;;;;;5037983;28;20128;-69
2023/08/18 06:16:43;;;;;;;0.52;0.15;;;16.50;47.90;;;;;;5034666;28;20021;-70
2023/08/18 06:19:12;;;;;;;1.48;0.10;;;16.50;48.00;;;;;;5034425;28;20032;-70
2023/08/18 06:21:39;;;;;;;1.52;0.10;;;16.60;47.90;;;;;;5034539;28;20513;-70
2023/08/18 06:24:08;;;;;;;1.00;0.28;;;16.80;47.80;;;;;;5034303;28;20033;-69
2023/08/18 06:26:36;;;;;;;1.25;0.20;;;16.90;47.10;;;;;;5032132;28;20413;-70
2023/08/18 06:29:03;;;;;;;0.60;0.20;;;16.80;47.20;;;;;;5034132;28;20036;-69
2023/08/18 06:31:30;;;;;;;2.53;1.30;;;16.80;47.50;;;;;;5034462;28;20026;-69
2023/08/18 06:33:58;;;;;;;0.20;0.20;;;16.90;46.90;;;;;;5045224;28;20057;-69
2023/08/18 06:36:25;;;;;;;1.63;0.40;;;16.70;46.30;;;;;;5044687;28;20022;-69
2023/08/18 06:38:53;;;;;;;1.90;0.85;;;16.70;46.90;;;;;;5032627;28;20394;-68
2023/08/18 06:41:20;;;;;;;1.25;0.00;;;16.70;48.10;;;;;;5033654;28;20396;-69
2023/08/18 06:43:47;;;;;;;1.00;0.20;;;16.50;46.10;;;;;;5038388;28;20112;-69
2023/08/18 06:46:16;;;;;;;3.63;0.45;;;16.30;47.00;;;;;;5047331;28;20072;-69
2023/08/18 06:48:43;;;;;;;1.08;0.13;;;16.20;47.80;;;;;;5036073;28;20029;-69
2023/08/18 06:51:11;;;;;;;0.43;0.28;;;16.30;48.60;;;;;;5042066;28;20037;-69
2023/08/18 06:53:38;;;;;;;1.33;0.40;;;16.20;47.60;;;;;;5053933;28;20040;-69
2023/08/18 06:56:05;;;;;;;0.38;0.20;;;16.10;48.00;;;;;;5048677;28;20087;-69
2023/08/18 06:58:33;;;;;;;0.50;0.30;;;16.10;47.80;;;;;;5033952;28;20036;-69
2023/08/18 07:01:00;;;;;;;0.35;0.20;;;16.00;48.70;;;;;;5034409;28;20067;-68
2023/08/18 07:03:28;;;;;;;0.70;0.30;;;16.00;47.20;;;;;;5033783;28;20057;-68
2023/08/18 07:05:57;;;;;;;0.20;0.10;;;15.90;47.70;;;;;;5017246;28;20433;-68
2023/08/18 07:08:24;;;;;;;0.20;0.00;;;15.70;48.00;;;;;;5033342;28;20070;-69
2023/08/18 07:10:52;;;;;;;0.20;0.20;;;15.50;48.80;;;;;;5037327;28;20025;-69
2023/08/18 07:13:21;;;;;;;0.05;0.00;;;15.30;49.30;;;;;;5053573;28;20467;-69
2023/08/18 07:15:49;;;;;;;0.32;0.08;;;15.20;50.00;;;;;;5032600;28;20084;-70
2023/08/18 07:18:18;;;;;;;0.43;0.10;;;15.00;50.40;;;;;;5041019;28;20025;-70
2023/08/18 07:20:46;;;;;;;0.88;0.10;;;14.90;50.50;;;;;;5049778;28;20028;-70
2023/08/18 07:23:14;;;;;;;0.43;0.20;;;14.70;51.10;;;;;;5053163;28;20108;-69
2023/08/18 07:25:45;;;;;;;0.38;0.10;;;14.70;51.40;;;;;;5049679;28;20107;-68
2023/08/18 07:28:12;;;;;;;0.10;0.10;;;14.70;51.80;;;;;;5052929;28;20044;-69
2023/08/18 07:30:39;;;;;;;0.10;0.10;;;14.70;52.00;;;;;;5053118;28;20028;-69
2023/08/18 07:33:07;;;;;;;0.13;0.10;;;14.50;52.10;;;;;;5033494;28;20030;-69
2023/08/18 07:35:34;;;;;;;0.10;0.10;;;14.40;52.50;;;;;;5033692;28;20045;-70
2023/08/18 07:38:02;;;;;;;0.90;0.17;;;14.40;52.90;;;;;;5029079;28;20083;-69
2023/08/18 07:40:30;;;;;;;0.20;0.10;;;14.30;52.90;;;;;;5033226;28;20029;-69
2023/08/18 07:42:58;;;;;;;0.30;0.20;;;14.20;53.80;;;;;;5034118;28;20021;-69
2023/08/18 07:45:26;;;;;;;0.50;0.20;;;14.10;53.70;;;;;;5032776;28;20040;-69
2023/08/18 07:47:54;;;;;;;1.02;0.50;;;14.30;53.20;;;;;;5032338;28;20069;-69
2023/08/18 07:50:22;;;;;;;0.80;0.30;;;14.30;53.30;;;;;;5033070;28;20580;-70
2023/08/18 07:52:49;;;;;;;0.90;0.60;;;14.20;53.70;;;;;;5033801;28;20030;-69
2023/08/18 07:55:23;;;;;;;0.63;0.30;;;14.10;54.00;;;;;;5032847;28;20037;-69
2023/08/18 07:57:50;;;;;;;0.70;0.32;;;14.10;54.60;;;;;;5031705;28;20043;-70
2023/08/18 08:00:21;;;;;;;0.30;0.20;;;14.30;55.30;;;;;;5033418;28;20463;-69
2023/08/18 08:02:49;;;;;;;1.85;0.60;;;14.00;54.80;;;;;;5033041;28;20026;-70
2023/08/18 08:05:19;;;;;;;2.05;0.75;;;14.00;60.10;;;;;;5031918;28;20048;-69
2023/08/18 08:07:47;;;;;;;2.30;1.40;;;13.60;56.40;;;;;;5030958;28;20091;-69
2023/08/18 08:10:14;;;;;;;2.17;1.20;;;13.60;57.90;;;;;;5033009;28;20032;-69
2023/08/18 08:12:42;;;;;;;1.98;0.80;;;13.50;59.30;;;;;;5032335;28;20037;-70
2023/08/18 08:15:11;;;;;;;1.35;0.70;;;13.40;62.80;;;;;;5032654;28;20052;-68
2023/08/18 08:17:39;;;;;;;3.45;0.75;;;13.50;58.40;;;;;;5045331;28;20025;-69
2023/08/18 08:20:14;;;;;;;2.15;0.90;;;13.50;62.10;;;;;;5050588;28;20456;-70
2023/08/18 08:22:42;;;;;;;1.55;0.70;;;13.70;57.90;;;;;;5052328;28;20033;-69
2023/08/18 08:25:10;;;;;;;0.85;0.50;;;13.50;59.40;;;;;;5052099;28;20502;-69
2023/08/18 08:27:38;;;;;;;2.20;1.10;;;13.30;58.00;;;;;;5049858;28;20528;-69
2023/08/18 08:30:07;;;;;;;2.00;1.08;;;13.50;57.10;;;;;;5050951;28;20467;-69
2023/08/18 08:32:35;;;;;;;0.90;0.60;;;13.60;58.00;;;;;;5051226;28;20051;-69
2023/08/18 08:35:02;;;;;;;2.35;0.88;;;13.70;59.20;;;;;;5052019;28;20037;-69
2023/08/18 08:37:30;;;;;;;1.20;0.52;;;13.60;57.20;;;;;;5030254;28;20052;-69
2023/08/18 08:39:57;;;;;;;1.15;0.63;;;13.50;60.00;;;;;;5032388;28;20418;-68
2023/08/18 08:42:24;;;;;;;0.90;0.30;;;13.40;60.90;;;;;;5032329;28;20120;-68
2023/08/18 08:44:52;;;;;;;0.82;0.40;;;13.50;61.10;;;;;;5052118;28;20039;-69
2023/08/18 08:47:19;;;;;;;0.40;0.20;;;13.40;57.80;;;;;;5035026;28;20025;-70
2023/08/18 08:49:53;;;;;;;0.82;0.15;;;13.40;61.70;;;;;;5034470;28;20025;-69
2023/08/18 08:52:21;;;;;;;0.30;0.22;;;13.30;58.60;;;;;;5051681;28;20057;-69
2023/08/18 08:54:57;;;;;;;0.70;0.20;;;13.40;61.70;;;;;;5041507;28;20041;-69
2023/08/18 08:57:25;;;;;;;0.47;0.30;;;13.30;63.00;;;;;;5046929;28;20079;-68
2023/08/18 08:59:54;;;;;;;0.73;0.45;;;13.30;62.80;;;;;;5043496;28;20029;-69
2023/08/18 09:02:22;;;;;;;1.70;0.70;;;13.10;60.70;;;;;;5044865;28;20029;-68
2023/08/18 09:04:49;;;;;;;0.82;0.40;;;13.00;60.50;;;;;;5029887;28;20494;-68
2023/08/18 09:07:17;;;;;;;0.88;0.20;;;13.00;64.00;;;;;;5039455;28;20029;-69
2023/08/18 09:09:44;;;;;;;0.20;0.20;;;12.90;65.70;;;;;;5047302;28;20025;-68
2023/08/18 09:12:12;;;;;;;0.20;0.10;;;12.90;64.60;;;;;;5050094;28;20082;-69
2023/08/18 09:14:41;;;;;;;0.15;0.15;;;12.90;65.80;;;;;;5031391;28;20045;-68
2023/08/18 09:17:08;;;;;;;2.15;0.50;;;12.80;65.80;;;;;;5031086;28;20029;-68
2023/08/18 09:19:36;;;;;;;2.42;0.60;;;12.90;64.90;;;;;;5031683;28;20018;-70
2023/08/18 09:22:04;;;;;;;0.45;0.22;;;12.90;65.70;;;;;;5031930;28;20029;-69
2023/08/18 09:24:33;;;;;;;1.60;0.30;;;12.70;66.80;;;;;;5030497;28;20029;-69
2023/08/18 09:27:12;;;;;;;1.95;0.77;;;12.70;63.50;;;;;;5030425;28;20056;-70
2023/08/18 09:29:39;;;;;;;0.98;0.38;;;12.60;62.00;;;;;;5034815;28;20047;-69
2023/08/18 09:32:08;;;;;;;0.65;0.30;;;12.70;62.20;;;;;;5035494;28;20025;-69
2023/08/18 09:34:43;;;;;;;0.47;0.25;;;12.70;62.30;;;;;;5035274;28;20072;-69
2023/08/18 09:37:11;;;;;;;0.50;0.20;;;12.70;63.40;;;;;;5029150;28;20029;-70
2023/08/18 09:39:38;;;;;;;0.47;0.20;;;12.60;62.60;;;;;;5034549;28;20029;-69
2023/08/18 09:42:07;;;;;;;0.38;0.30;;;12.70;66.60;;;;;;5035229;28;20041;-70
2023/08/18 09:44:35;;;;;;;0.60;0.38;;;12.50;63.20;;;;;;5034387;28;20487;-70
2023/08/18 09:47:08;;;;;;;1.30;0.65;;;12.60;65.50;;;;;;5032910;28;20375;-71
2023/08/18 09:49:40;;;;;;;1.30;0.60;;;12.50;67.50;;;;;;5034780;28;20029;-69
2023/08/18 09:52:14;;;;;;;1.35;0.75;;;12.40;63.80;;;;;;5039427;28;20057;-69
2023/08/18 09:54:55;;;;;;;1.25;0.90;;;12.30;64.20;;;;;;5034326;28;20037;-69
2023/08/18 09:57:57;;;;;;;1.58;0.82;;;12.50;64.30;;;;;;5032450;28;20041;-70
2023/08/18 10:00:26;;;;;;;2.78;0.47;;;12.50;66.20;;;;;;5034339;28;20029;-69
2023/08/18 10:02:56;;;;;;;0.30;0.30;;;12.40;64.40;;;;;;5038793;28;20032;-69
2023/08/18 10:05:24;;;;;;;0.63;0.20;;;12.40;67.50;;;;;;5054281;28;20051;-69
2023/08/18 10:07:52;;;;;;;0.32;0.20;;;12.40;66.80;;;;;;5042873;28;20367;-69
2023/08/18 10:10:21;;;;;;;0.28;0.28;;;12.30;68.50;;;;;;5032608;28;20025;-69
2023/08/18 10:12:51;;;;;;;0.93;0.60;;;12.40;67.40;;;;;;5034410;28;20025;-69
2023/08/18 10:15:19;;;;;;;0.52;0.30;;;12.40;67.00;;;;;;5042693;28;20040;-69
2023/08/18 10:17:46;;;;;;;0.60;0.40;;;12.20;64.40;;;;;;5046896;28;20752;-68
2023/08/18 10:20:14;;;;;;;0.82;0.50;;;12.20;68.00;;;;;;5033851;28;20467;-69
2023/08/18 10:22:43;;;;;;;0.60;0.30;;;12.10;67.80;;;;;;5034251;28;20064;-70
2023/08/18 10:25:22;;;;;;;1.48;0.45;;;12.10;67.70;;;;;;5034597;28;20037;-69
2023/08/18 10:27:49;;;;;;;0.65;0.40;;;12.10;68.10;;;;;;5037574;28;20518;-69
2023/08/18 10:30:23;;;;;;;0.60;0.30;;;11.90;68.80;;;;;;5054221;28;20035;-70
2023/08/18 10:33:00;;;;;;;1.10;0.63;;;11.90;69.10;;;;;;5053384;28;20025;-70
2023/08/18 10:35:28;;;;;;;0.50;0.50;;;11.80;66.20;;;;;;5048660;28;20041;-70
2023/08/18 10:37:56;;;;;;;1.20;0.80;;;12.00;69.60;;;;;;5037016;28;20414;-70
2023/08/18 10:40:41;;;;;;;1.20;1.10;;;12.10;68.50;;;;;;5052520;28;20071;-69
2023/08/18 10:43:19;;;;;;;1.05;0.80;;;12.00;65.10;;;;;;5052793;28;20017;-70
2023/08/18 10:45:59;;;;;;;1.33;0.80;;;12.00;68.70;;;;;;5053431;28;20461;-69
2023/08/18 10:48:33;;;;;;;0.20;0.20;;;11.60;69.30;;;;;;5051331;28;20096;-69
2023/08/18 10:51:01;;;;;;;0.40;0.30;;;11.80;68.40;;;;;;5053101;28;20032;-69
2023/08/18 10:53:40;;;;;;;1.05;0.50;;;11.70;68.70;;;;;;5053235;28;20029;-69
2023/08/18 10:56:07;;;;;;;0.90;0.57;;;11.60;70.30;;;;;;5053593;28;20044;-71
2023/08/18 10:58:35;;;;;;;1.75;0.80;;;11.60;71.70;;;;;;5043723;28;20025;-70
2023/08/18 11:01:05;;;;;;;3.22;1.98;;;11.40;70.60;;;;;;5033229;28;20029;-69
2023/08/18 11:03:33;;;;;;;2.72;2.03;;;11.40;71.30;;;;;;5031710;28;20107;-69
2023/08/18 11:06:00;;;;;;;3.75;2.83;;;11.40;72.60;;;;;;5038991;28;20398;-69
2023/08/18 11:08:28;;;;;;;1.00;0.68;;;11.30;70.70;;;;;;5048038;28;20032;-69
2023/08/18 11:10:55;;;;;;;2.17;0.40;;;11.40;72.10;;;;;;5052488;28;20029;-69
2023/08/18 11:13:25;;;;;;;0.52;0.40;;;11.40;71.20;;;;;;5053067;28;20025;-69
2023/08/18 11:15:54;;;;;;;0.57;0.50;;;11.40;71.20;;;;;;5051798;28;20055;-70
2023/08/18 11:18:22;;;;;;;4.28;0.28;;;11.40;71.00;;;;;;5043841;28;20032;-69
2023/08/18 11:20:51;;;;;;;1.98;0.35;;;11.50;69.70;;;;;;5039968;28;20028;-69
2023/08/18 11:23:19;;;;;;;1.70;0.38;;;11.40;70.70;;;;;;5044114;28;20033;-68
2023/08/18 11:25:47;;;;;;;2.95;0.55;;;11.40;71.20;;;;;;5032146;28;20028;-69
2023/08/18 11:28:15;;;;;;;1.02;0.43;;;11.40;69.50;;;;;;5030405;28;20513;-69
2023/08/18 11:30:44;;;;;;;1.58;0.30;;;11.50;69.80;;;;;;5051611;28;20478;-69
2023/08/18 11:33:12;;;;;;;3.88;0.73;;;11.50;70.00;;;;;;5052049;28;20082;-68
2023/08/18 11:35:39;;;;;;;0.70;0.20;;;11.60;68.40;;;;;;5053136;28;20036;-68
2023/08/18 11:38:09;;;;;;;2.28;0.40;;;11.60;69.40;;;;;;5049941;28;20543;-67
2023/08/18 11:40:39;;;;;;;2.38;0.65;;;11.60;68.80;;;;;;5042182;28;20547;-70
2023/08/18 11:43:11;;;;;;;2.55;0.50;;;11.60;68.80;;;;;;5036486;28;20021;-70
2023/08/18 11:45:39;;;;;;;0.70;0.30;;;11.60;68.90;;;;;;5030346;28;20072;-68
2023/08/18 11:48:07;;;;;;;2.35;0.57;;;11.60;68.90;;;;;;5030726;28;20022;-67
2023/08/18 11:50:36;;;;;;;1.02;0.47;;;11.70;69.10;;;;;;5036106;28;20057;-68
2023/08/18 11:53:12;;;;;;;4.25;0.63;;;11.60;68.20;;;;;;5050133;28;20144;-68
2023/08/18 11:55:44;;;;;;;4.35;0.70;;;11.70;69.00;;;;;;5052170;28;20033;-68
2023/08/18 11:58:16;;;;;;;3.80;0.70;;;11.70;68.60;;;;;;5050040;28;20037;-68
2023/08/18 12:00:46;;;;;;;1.55;0.80;;;11.60;68.40;;;;;;5032930;28;20029;-67
2023/08/18 12:03:25;;;;;;;2.65;1.23;;;11.60;68.30;;;;;;5032390;28;20029;-68
2023/08/18 12:05:54;;;;;;;3.22;1.20;;;11.70;67.40;;;;;;5033148;28;20383;-68
2023/08/18 12:08:22;;;;;;;2.90;0.80;;;11.70;68.00;;;;;;5033276;28;20025;-68
2023/08/18 12:10:52;;;;;;;2.35;0.70;;;11.80;66.50;;;;;;5051915;28;20417;-69
2023/08/18 12:13:20;;;;;;;2.45;0.70;;;11.80;67.00;;;;;;5041797;28;20352;-68
2023/08/18 12:15:47;;;;;;;2.67;0.63;;;11.80;67.50;;;;;;5032513;28;20535;-68
2023/08/18 12:18:15;;;;;;;4.47;0.85;;;11.60;66.70;;;;;;5032290;28;20036;-68
2023/08/18 12:20:41;;;;;;;;;;;11.50;69.60;;;;;;5047291;28;20021;-68
2023/08/18 12:23:09;;;;;;;1.60;0.90;;;11.40;70.10;;;;;;5043414;28;20234;-68
2023/08/18 12:25:36;;;;;;;1.98;0.60;;;11.50;69.20;;;;;;5033194;28;20037;-67
2023/08/18 12:28:05;;;;;;;2.70;0.68;;;11.30;68.30;;;;;;5032379;28;20107;-69
2023/08/18 12:30:33;;;;;;;2.58;0.77;;;11.20;69.80;;;;;;5044685;28;20029;-67
2023/08/18 12:33:00;;;;;;;1.88;0.70;;;11.30;70.60;;;;;;5044747;28;20033;-67
2023/08/18 12:35:27;;;;;;;3.45;0.85;;;11.10;72.10;;;;;;5032052;28;20495;-67
2023/08/18 12:37:55;;;;;;;4.38;0.80;;;11.00;70.80;;;;;;5032457;28;20098;-67
2023/08/18 12:40:22;;;;;;;1.65;0.63;;;10.70;73.90;;;;;;5042861;28;20534;-68
2023/08/18 12:42:50;;;;;;;2.70;0.82;;;10.60;74.00;;;;;;5046149;28;20121;-67
2023/08/18 12:45:16;;;;;;;;;;;10.50;73.60;;;;;;5031453;28;20572;-67
2023/08/18 12:47:44;;;;;;;3.25;0.80;;;10.40;76.50;;;;;;5031479;28;20039;-68
2023/08/18 12:50:11;;;;;;;2.83;0.90;;;10.40;75.30;;;;;;5029356;28;20037;-68
2023/08/18 12:52:38;;;;;;;4.10;1.02;;;10.60;74.30;;;;;;5043911;28;20029;-67
2023/08/18 12:55:05;;;;;;;;;;;10.70;74.30;;;;;;5032846;28;20037;-67
2023/08/18 12:57:33;;;;;;;3.35;0.75;;;10.80;73.50;;;;;;5034150;28;19916;-67